sensor_id;sensor_type;location;lat;lon;timestamp;P1;durP1;ratioP1;P2;durP2;ratioP2
25365;SDS011;13315;48.274;-1.900;2022-11-20T00:02:03;2.42;;;1.40;;
25365;SDS011;13315;48.274;-1.900;2022-11-20T00:04:28;1.48;;;1.25;;
25365;SDS011;13315;48.274;-1.900;2022-11-20T00:06:54;1.88;;;1.48;;
25365;SDS011;13315;48.274;-1.900;2022-11-20T00:09:20;2.10;;;1.58;;
25365;SDS011;13315;48.274;-1.900;2022-11-20T00:11:46;3.40;;;1.67;;
25365;SDS011;13315;48.274;-1.900;2022-11-20T00:14:11;1.70;;;1.55;;
25365;SDS011;13315;48.274;-1.900;2022-11-20T00:16:37;3.33;;;1.98;;
25365;SDS011;13315;48.274;-1.900;2022-11-20T00:19:03;2.65;;;1.58;;
25365;SDS011;13315;48.274;-1.900;2022-11-20T00:21:28;2.13;;;1.65;;
25365;SDS011;13315;48.274;-1.900;2022-11-20T00:23:55;5.65;;;1.60;;
25365;SDS011;13315;48.274;-1.900;2022-11-20T00:26:22;4.18;;;1.50;;
25365;SDS011;13315;48.274;-1.900;2022-11-20T00:28:51;3.00;;;2.03;;
25365;SDS011;13315;48.274;-1.900;2022-11-20T00:31:19;1.75;;;1.23;;
25365;SDS011;13315;48.274;-1.900;2022-11-20T00:33:45;2.58;;;1.65;;
25365;SDS011;13315;48.274;-1.900;2022-11-20T00:36:18;3.80;;;1.83;;
25365;SDS011;13315;48.274;-1.900;2022-11-20T00:38:45;3.38;;;1.90;;
25365;SDS011;13315;48.274;-1.900;2022-11-20T00:41:13;1.90;;;1.40;;
25365;SDS011;13315;48.274;-1.900;2022-11-20T00:43:40;2.90;;;1.60;;
25365;SDS011;13315;48.274;-1.900;2022-11-20T00:46:07;1.88;;;1.33;;
25365;SDS011;13315;48.274;-1.900;2022-11-20T00:48:34;2.25;;;1.63;;
25365;SDS011;13315;48.274;-1.900;2022-11-20T00:51:00;1.20;;;1.10;;
25365;SDS011;13315;48.274;-1.900;2022-11-20T00:53:26;3.28;;;1.70;;
25365;SDS011;13315;48.274;-1.900;2022-11-20T00:55:53;2.85;;;1.67;;
25365;SDS011;13315;48.274;-1.900;2022-11-20T00:58:20;2.03;;;1.42;;
25365;SDS011;13315;48.274;-1.900;2022-11-20T01:00:47;2.08;;;1.52;;
25365;SDS011;13315;48.274;-1.900;2022-11-20T01:03:14;4.10;;;1.92;;
25365;SDS011;13315;48.274;-1.900;2022-11-20T01:05:41;2.63;;;1.50;;
25365;SDS011;13315;48.274;-1.900;2022-11-20T01:08:07;1.90;;;1.45;;
25365;SDS011;13315;48.274;-1.900;2022-11-20T01:10:33;2.70;;;1.58;;
25365;SDS011;13315;48.274;-1.900;2022-11-20T01:12:59;2.20;;;1.35;;
25365;SDS011;13315;48.274;-1.900;2022-11-20T01:15:43;3.10;;;1.60;;
25365;SDS011;13315;48.274;-1.900;2022-11-20T01:18:09;1.85;;;1.33;;
25365;SDS011;13315;48.274;-1.900;2022-11-20T01:20:35;2.15;;;1.60;;
25365;SDS011;13315;48.274;-1.900;2022-11-20T01:23:02;2.20;;;1.40;;
25365;SDS011;13315;48.274;-1.900;2022-11-20T01:25:28;2.50;;;1.50;;
25365;SDS011;13315;48.274;-1.900;2022-11-20T01:27:54;3.40;;;1.60;;
25365;SDS011;13315;48.274;-1.900;2022-11-20T01:30:19;1.80;;;1.65;;
25365;SDS011;13315;48.274;-1.900;2022-11-20T01:32:45;2.65;;;1.70;;
25365;SDS011;13315;48.274;-1.900;2022-11-20T01:35:11;1.70;;;1.30;;
25365;SDS011;13315;48.274;-1.900;2022-11-20T01:37:37;2.53;;;1.63;;
25365;SDS011;13315;48.274;-1.900;2022-11-20T01:40:02;2.85;;;1.65;;
25365;SDS011;13315;48.274;-1.900;2022-11-20T01:42:28;3.17;;;1.77;;
25365;SDS011;13315;48.274;-1.900;2022-11-20T01:48:21;2.45;;;1.58;;
25365;SDS011;13315;48.274;-1.900;2022-11-20T01:50:50;3.28;;;1.38;;
25365;SDS011;13315;48.274;-1.900;2022-11-20T01:53:17;3.53;;;1.92;;
25365;SDS011;13315;48.274;-1.900;2022-11-20T01:55:50;3.60;;;1.85;;
25365;SDS011;13315;48.274;-1.900;2022-11-20T01:58:22;1.85;;;1.45;;
25365;SDS011;13315;48.274;-1.900;2022-11-20T02:00:52;2.58;;;1.85;;
25365;SDS011;13315;48.274;-1.900;2022-11-20T02:03:18;2.13;;;1.40;;
25365;SDS011;13315;48.274;-1.900;2022-11-20T02:08:33;4.28;;;1.70;;
25365;SDS011;13315;48.274;-1.900;2022-11-20T02:10:59;3.65;;;1.70;;
25365;SDS011;13315;48.274;-1.900;2022-11-20T02:13:25;1.60;;;1.40;;
25365;SDS011;13315;48.274;-1.900;2022-11-20T02:16:16;3.33;;;1.65;;
25365;SDS011;13315;48.274;-1.900;2022-11-20T02:18:48;1.98;;;1.50;;
25365;SDS011;13315;48.274;-1.900;2022-11-20T02:21:28;2.67;;;1.65;;
25365;SDS011;13315;48.274;-1.900;2022-11-20T02:29:06;3.47;;;1.90;;
25365;SDS011;13315;48.274;-1.900;2022-11-20T02:31:41;1.70;;;1.33;;
25365;SDS011;13315;48.274;-1.900;2022-11-20T02:34:08;2.83;;;1.33;;
25365;SDS011;13315;48.274;-1.900;2022-11-20T02:36:34;5.47;;;1.63;;
25365;SDS011;13315;48.274;-1.900;2022-11-20T02:39:03;2.25;;;1.67;;
25365;SDS011;13315;48.274;-1.900;2022-11-20T02:41:33;2.05;;;1.42;;
25365;SDS011;13315;48.274;-1.900;2022-11-20T02:44:02;1.65;;;1.20;;
25365;SDS011;13315;48.274;-1.900;2022-11-20T02:46:29;2.55;;;1.70;;
25365;SDS011;13315;48.274;-1.900;2022-11-20T02:48:56;2.55;;;1.73;;
25365;SDS011;13315;48.274;-1.900;2022-11-20T02:51:21;2.60;;;1.60;;
25365;SDS011;13315;48.274;-1.900;2022-11-20T02:53:47;2.50;;;1.55;;
25365;SDS011;13315;48.274;-1.900;2022-11-20T02:56:13;1.98;;;1.50;;
25365;SDS011;13315;48.274;-1.900;2022-11-20T02:58:39;5.13;;;1.33;;
25365;SDS011;13315;48.274;-1.900;2022-11-20T03:01:04;3.28;;;1.58;;
25365;SDS011;13315;48.274;-1.900;2022-11-20T03:03:30;2.08;;;1.63;;
25365;SDS011;13315;48.274;-1.900;2022-11-20T03:05:58;2.35;;;1.50;;
25365;SDS011;13315;48.274;-1.900;2022-11-20T03:08:24;1.92;;;1.38;;
25365;SDS011;13315;48.274;-1.900;2022-11-20T03:10:50;3.05;;;1.55;;
25365;SDS011;13315;48.274;-1.900;2022-11-20T03:13:16;2.45;;;1.55;;
25365;SDS011;13315;48.274;-1.900;2022-11-20T03:15:42;1.73;;;1.42;;
25365;SDS011;13315;48.274;-1.900;2022-11-20T03:18:07;1.45;;;1.30;;
25365;SDS011;13315;48.274;-1.900;2022-11-20T03:20:33;1.73;;;1.30;;
25365;SDS011;13315;48.274;-1.900;2022-11-20T03:22:59;3.55;;;1.77;;
25365;SDS011;13315;48.274;-1.900;2022-11-20T03:25:25;1.95;;;1.45;;
25365;SDS011;13315;48.274;-1.900;2022-11-20T03:27:51;2.08;;;1.50;;
25365;SDS011;13315;48.274;-1.900;2022-11-20T03:30:17;2.08;;;1.40;;
25365;SDS011;13315;48.274;-1.900;2022-11-20T03:32:43;2.30;;;1.27;;
25365;SDS011;13315;48.274;-1.900;2022-11-20T03:35:08;2.03;;;1.38;;
25365;SDS011;13315;48.274;-1.900;2022-11-20T03:37:35;2.30;;;1.25;;
25365;SDS011;13315;48.274;-1.900;2022-11-20T03:40:00;2.42;;;1.50;;
25365;SDS011;13315;48.274;-1.900;2022-11-20T03:42:26;1.25;;;1.10;;
25365;SDS011;13315;48.274;-1.900;2022-11-20T03:45:10;2.15;;;1.42;;
25365;SDS011;13315;48.274;-1.900;2022-11-20T03:47:37;1.25;;;1.15;;
25365;SDS011;13315;48.274;-1.900;2022-11-20T03:50:03;2.53;;;1.17;;
25365;SDS011;13315;48.274;-1.900;2022-11-20T03:52:30;2.10;;;1.20;;
25365;SDS011;13315;48.274;-1.900;2022-11-20T03:54:55;1.33;;;1.20;;
25365;SDS011;13315;48.274;-1.900;2022-11-20T03:57:21;1.05;;;0.98;;
25365;SDS011;13315;48.274;-1.900;2022-11-20T03:59:47;1.73;;;1.10;;
25365;SDS011;13315;48.274;-1.900;2022-11-20T04:02:12;1.08;;;1.00;;
25365;SDS011;13315;48.274;-1.900;2022-11-20T04:04:38;1.52;;;1.13;;
25365;SDS011;13315;48.274;-1.900;2022-11-20T04:07:04;1.92;;;1.20;;
25365;SDS011;13315;48.274;-1.900;2022-11-20T04:09:29;0.98;;;0.82;;
25365;SDS011;13315;48.274;-1.900;2022-11-20T04:11:55;1.25;;;1.05;;
25365;SDS011;13315;48.274;-1.900;2022-11-20T04:14:21;1.80;;;1.27;;
25365;SDS011;13315;48.274;-1.900;2022-11-20T04:16:47;2.00;;;1.13;;
25365;SDS011;13315;48.274;-1.900;2022-11-20T04:19:14;1.83;;;1.30;;
25365;SDS011;13315;48.274;-1.900;2022-11-20T04:21:41;1.33;;;1.13;;
25365;SDS011;13315;48.274;-1.900;2022-11-20T04:24:07;1.75;;;1.30;;
25365;SDS011;13315;48.274;-1.900;2022-11-20T04:26:33;1.67;;;0.95;;
25365;SDS011;13315;48.274;-1.900;2022-11-20T04:28:59;2.03;;;1.30;;
25365;SDS011;13315;48.274;-1.900;2022-11-20T04:31:28;1.27;;;0.90;;
25365;SDS011;13315;48.274;-1.900;2022-11-20T04:33:58;1.13;;;1.07;;
25365;SDS011;13315;48.274;-1.900;2022-11-20T04:36:29;1.52;;;1.05;;
25365;SDS011;13315;48.274;-1.900;2022-11-20T04:38:58;1.10;;;1.05;;
25365;SDS011;13315;48.274;-1.900;2022-11-20T04:41:26;1.45;;;1.13;;
25365;SDS011;13315;48.274;-1.900;2022-11-20T04:43:55;1.98;;;0.98;;
25365;SDS011;13315;48.274;-1.900;2022-11-20T04:46:24;0.80;;;0.70;;
25365;SDS011;13315;48.274;-1.900;2022-11-20T04:48:51;0.98;;;0.77;;
25365;SDS011;13315;48.274;-1.900;2022-11-20T04:51:18;0.80;;;0.80;;
25365;SDS011;13315;48.274;-1.900;2022-11-20T04:53:44;0.98;;;0.90;;
25365;SDS011;13315;48.274;-1.900;2022-11-20T04:56:10;0.85;;;0.85;;
25365;SDS011;13315;48.274;-1.900;2022-11-20T04:58:37;1.42;;;1.10;;
25365;SDS011;13315;48.274;-1.900;2022-11-20T05:01:08;0.80;;;0.80;;
25365;SDS011;13315;48.274;-1.900;2022-11-20T05:03:39;1.17;;;0.85;;
25365;SDS011;13315;48.274;-1.900;2022-11-20T05:06:06;1.33;;;0.90;;
25365;SDS011;13315;48.274;-1.900;2022-11-20T05:08:33;3.45;;;0.80;;
25365;SDS011;13315;48.274;-1.900;2022-11-20T05:11:00;1.30;;;0.88;;
25365;SDS011;13315;48.274;-1.900;2022-11-20T05:13:30;1.52;;;0.80;;
25365;SDS011;13315;48.274;-1.900;2022-11-20T05:16:00;1.20;;;0.90;;
25365;SDS011;13315;48.274;-1.900;2022-11-20T05:18:30;1.38;;;0.90;;
25365;SDS011;13315;48.274;-1.900;2022-11-20T05:20:56;1.13;;;0.90;;
25365;SDS011;13315;48.274;-1.900;2022-11-20T05:23:23;1.30;;;0.90;;
25365;SDS011;13315;48.274;-1.900;2022-11-20T05:25:53;0.70;;;0.70;;
25365;SDS011;13315;48.274;-1.900;2022-11-20T05:28:19;0.65;;;0.65;;
25365;SDS011;13315;48.274;-1.900;2022-11-20T05:30:45;0.80;;;0.80;;
25365;SDS011;13315;48.274;-1.900;2022-11-20T05:33:10;0.80;;;0.70;;
25365;SDS011;13315;48.274;-1.900;2022-11-20T05:35:36;0.95;;;0.85;;
25365;SDS011;13315;48.274;-1.900;2022-11-20T05:38:02;0.95;;;0.75;;
25365;SDS011;13315;48.274;-1.900;2022-11-20T05:40:28;0.70;;;0.70;;
25365;SDS011;13315;48.274;-1.900;2022-11-20T05:42:53;1.55;;;0.70;;
25365;SDS011;13315;48.274;-1.900;2022-11-20T05:45:19;0.82;;;0.80;;
25365;SDS011;13315;48.274;-1.900;2022-11-20T05:47:45;1.00;;;0.90;;
25365;SDS011;13315;48.274;-1.900;2022-11-20T05:50:11;1.02;;;0.73;;
25365;SDS011;13315;48.274;-1.900;2022-11-20T05:52:36;0.77;;;0.70;;
25365;SDS011;13315;48.274;-1.900;2022-11-20T05:55:02;0.80;;;0.80;;
25365;SDS011;13315;48.274;-1.900;2022-11-20T05:57:28;0.80;;;0.80;;
25365;SDS011;13315;48.274;-1.900;2022-11-20T05:59:54;0.65;;;0.65;;
25365;SDS011;13315;48.274;-1.900;2022-11-20T06:02:19;0.73;;;0.73;;
25365;SDS011;13315;48.274;-1.900;2022-11-20T06:04:45;0.77;;;0.77;;
25365;SDS011;13315;48.274;-1.900;2022-11-20T06:07:11;1.42;;;0.80;;
25365;SDS011;13315;48.274;-1.900;2022-11-20T06:09:37;1.00;;;0.60;;
25365;SDS011;13315;48.274;-1.900;2022-11-20T06:12:02;0.77;;;0.70;;
25365;SDS011;13315;48.274;-1.900;2022-11-20T06:14:28;0.93;;;0.90;;
25365;SDS011;13315;48.274;-1.900;2022-11-20T06:16:54;0.90;;;0.75;;
25365;SDS011;13315;48.274;-1.900;2022-11-20T06:19:20;0.80;;;0.80;;
25365;SDS011;13315;48.274;-1.900;2022-11-20T06:21:47;1.38;;;0.90;;
25365;SDS011;13315;48.274;-1.900;2022-11-20T06:24:14;0.80;;;0.80;;
25365;SDS011;13315;48.274;-1.900;2022-11-20T06:26:40;0.77;;;0.70;;
25365;SDS011;13315;48.274;-1.900;2022-11-20T06:29:06;0.60;;;0.60;;
25365;SDS011;13315;48.274;-1.900;2022-11-20T06:31:31;0.80;;;0.50;;
25365;SDS011;13315;48.274;-1.900;2022-11-20T06:34:05;0.70;;;0.70;;
25365;SDS011;13315;48.274;-1.900;2022-11-20T06:36:32;0.70;;;0.70;;
25365;SDS011;13315;48.274;-1.900;2022-11-20T06:38:58;0.70;;;0.70;;
25365;SDS011;13315;48.274;-1.900;2022-11-20T06:41:24;0.85;;;0.80;;
25365;SDS011;13315;48.274;-1.900;2022-11-20T06:43:50;1.13;;;0.70;;
25365;SDS011;13315;48.274;-1.900;2022-11-20T06:46:17;0.75;;;0.70;;
25365;SDS011;13315;48.274;-1.900;2022-11-20T06:48:44;0.63;;;0.63;;
25365;SDS011;13315;48.274;-1.900;2022-11-20T06:51:11;0.55;;;0.55;;
25365;SDS011;13315;48.274;-1.900;2022-11-20T06:53:36;1.00;;;0.65;;
25365;SDS011;13315;48.274;-1.900;2022-11-20T06:56:03;2.03;;;0.80;;
25365;SDS011;13315;48.274;-1.900;2022-11-20T06:58:29;0.50;;;0.50;;
25365;SDS011;13315;48.274;-1.900;2022-11-20T07:01:00;0.55;;;0.55;;
25365;SDS011;13315;48.274;-1.900;2022-11-20T07:03:30;0.98;;;0.82;;
25365;SDS011;13315;48.274;-1.900;2022-11-20T07:05:56;0.57;;;0.57;;
25365;SDS011;13315;48.274;-1.900;2022-11-20T07:08:22;0.50;;;0.50;;
25365;SDS011;13315;48.274;-1.900;2022-11-20T07:10:48;0.60;;;0.60;;
25365;SDS011;13315;48.274;-1.900;2022-11-20T07:13:14;0.68;;;0.68;;
25365;SDS011;13315;48.274;-1.900;2022-11-20T07:15:40;1.45;;;0.60;;
25365;SDS011;13315;48.274;-1.900;2022-11-20T07:18:06;1.95;;;0.60;;
25365;SDS011;13315;48.274;-1.900;2022-11-20T07:20:31;0.70;;;0.70;;
25365;SDS011;13315;48.274;-1.900;2022-11-20T07:22:57;0.65;;;0.60;;
25365;SDS011;13315;48.274;-1.900;2022-11-20T07:25:23;0.50;;;0.50;;
25365;SDS011;13315;48.274;-1.900;2022-11-20T07:27:50;0.70;;;0.70;;
25365;SDS011;13315;48.274;-1.900;2022-11-20T07:30:16;0.70;;;0.70;;
25365;SDS011;13315;48.274;-1.900;2022-11-20T07:32:42;0.80;;;0.60;;
25365;SDS011;13315;48.274;-1.900;2022-11-20T07:35:11;0.57;;;0.57;;
25365;SDS011;13315;48.274;-1.900;2022-11-20T07:37:37;0.88;;;0.68;;
25365;SDS011;13315;48.274;-1.900;2022-11-20T07:40:02;0.60;;;0.60;;
25365;SDS011;13315;48.274;-1.900;2022-11-20T07:42:29;0.60;;;0.60;;
25365;SDS011;13315;48.274;-1.900;2022-11-20T07:44:54;0.63;;;0.57;;
25365;SDS011;13315;48.274;-1.900;2022-11-20T07:47:20;0.70;;;0.70;;
25365;SDS011;13315;48.274;-1.900;2022-11-20T07:49:46;0.70;;;0.70;;
25365;SDS011;13315;48.274;-1.900;2022-11-20T07:52:11;0.70;;;0.70;;
25365;SDS011;13315;48.274;-1.900;2022-11-20T07:54:37;0.52;;;0.52;;
25365;SDS011;13315;48.274;-1.900;2022-11-20T07:57:03;0.60;;;0.60;;
25365;SDS011;13315;48.274;-1.900;2022-11-20T07:59:28;0.50;;;0.50;;
25365;SDS011;13315;48.274;-1.900;2022-11-20T08:01:54;0.60;;;0.60;;
25365;SDS011;13315;48.274;-1.900;2022-11-20T08:04:20;0.70;;;0.70;;
25365;SDS011;13315;48.274;-1.900;2022-11-20T08:06:46;0.52;;;0.52;;
25365;SDS011;13315;48.274;-1.900;2022-11-20T08:09:12;0.68;;;0.68;;
25365;SDS011;13315;48.274;-1.900;2022-11-20T08:11:38;0.95;;;0.70;;
25365;SDS011;13315;48.274;-1.900;2022-11-20T08:14:22;0.60;;;0.60;;
25365;SDS011;13315;48.274;-1.900;2022-11-20T08:16:48;0.75;;;0.60;;
25365;SDS011;13315;48.274;-1.900;2022-11-20T08:19:15;0.63;;;0.63;;
25365;SDS011;13315;48.274;-1.900;2022-11-20T08:21:42;0.70;;;0.70;;
25365;SDS011;13315;48.274;-1.900;2022-11-20T08:24:09;2.58;;;0.70;;
25365;SDS011;13315;48.274;-1.900;2022-11-20T08:26:36;0.75;;;0.70;;
25365;SDS011;13315;48.274;-1.900;2022-11-20T08:29:03;0.95;;;0.80;;
25365;SDS011;13315;48.274;-1.900;2022-11-20T08:31:30;0.75;;;0.70;;
25365;SDS011;13315;48.274;-1.900;2022-11-20T08:33:56;1.58;;;0.80;;
25365;SDS011;13315;48.274;-1.900;2022-11-20T08:36:23;1.17;;;1.08;;
25365;SDS011;13315;48.274;-1.900;2022-11-20T08:38:53;0.70;;;0.70;;
25365;SDS011;13315;48.274;-1.900;2022-11-20T08:41:20;2.05;;;0.80;;
25365;SDS011;13315;48.274;-1.900;2022-11-20T08:43:51;1.88;;;0.70;;
25365;SDS011;13315;48.274;-1.900;2022-11-20T08:46:17;1.85;;;0.77;;
25365;SDS011;13315;48.274;-1.900;2022-11-20T08:48:44;0.50;;;0.50;;
25365;SDS011;13315;48.274;-1.900;2022-11-20T08:51:10;13.65;;;1.63;;
25365;SDS011;13315;48.274;-1.900;2022-11-20T08:53:36;4.28;;;1.27;;
25365;SDS011;13315;48.274;-1.900;2022-11-20T08:56:02;3.03;;;0.80;;
25365;SDS011;13315;48.274;-1.900;2022-11-20T08:58:28;5.13;;;1.20;;
25365;SDS011;13315;48.274;-1.900;2022-11-20T09:00:54;2.25;;;1.13;;
25365;SDS011;13315;48.274;-1.900;2022-11-20T09:03:21;3.25;;;1.25;;
25365;SDS011;13315;48.274;-1.900;2022-11-20T09:05:47;5.65;;;1.55;;
25365;SDS011;13315;48.274;-1.900;2022-11-20T09:08:13;5.50;;;1.35;;
25365;SDS011;13315;48.274;-1.900;2022-11-20T09:10:38;1.83;;;1.02;;
25365;SDS011;13315;48.274;-1.900;2022-11-20T09:13:05;2.15;;;0.90;;
25365;SDS011;13315;48.274;-1.900;2022-11-20T09:15:31;1.23;;;1.00;;
25365;SDS011;13315;48.274;-1.900;2022-11-20T09:18:01;8.00;;;1.92;;
25365;SDS011;13315;48.274;-1.900;2022-11-20T09:20:28;4.82;;;1.13;;
25365;SDS011;13315;48.274;-1.900;2022-11-20T09:22:55;3.95;;;1.48;;
25365;SDS011;13315;48.274;-1.900;2022-11-20T09:25:21;4.85;;;1.35;;
25365;SDS011;13315;48.274;-1.900;2022-11-20T09:27:47;5.47;;;1.55;;
25365;SDS011;13315;48.274;-1.900;2022-11-20T09:30:13;1.67;;;1.00;;
25365;SDS011;13315;48.274;-1.900;2022-11-20T09:32:40;6.05;;;1.70;;
25365;SDS011;13315;48.274;-1.900;2022-11-20T09:35:06;6.57;;;1.35;;
25365;SDS011;13315;48.274;-1.900;2022-11-20T09:37:32;3.70;;;1.58;;
25365;SDS011;13315;48.274;-1.900;2022-11-20T09:39:58;3.95;;;1.27;;
25365;SDS011;13315;48.274;-1.900;2022-11-20T09:50:49;6.22;;;1.35;;
25365;SDS011;13315;48.274;-1.900;2022-11-20T09:53:39;8.85;;;1.30;;
25365;SDS011;13315;48.274;-1.900;2022-11-20T09:56:25;5.10;;;1.33;;
25365;SDS011;13315;48.274;-1.900;2022-11-20T09:58:57;7.65;;;1.70;;
25365;SDS011;13315;48.274;-1.900;2022-11-20T10:01:29;2.30;;;1.30;;
25365;SDS011;13315;48.274;-1.900;2022-11-20T10:06:37;6.80;;;1.40;;
25365;SDS011;13315;48.274;-1.900;2022-11-20T10:23:04;4.53;;;1.52;;
25365;SDS011;13315;48.274;-1.900;2022-11-20T10:26:04;3.85;;;1.40;;
25365;SDS011;13315;48.274;-1.900;2022-11-20T10:36:41;8.13;;;1.83;;
25365;SDS011;13315;48.274;-1.900;2022-11-20T10:42:03;9.18;;;1.52;;
25365;SDS011;13315;48.274;-1.900;2022-11-20T10:44:39;3.47;;;1.25;;
25365;SDS011;13315;48.274;-1.900;2022-11-20T10:47:27;10.47;;;1.80;;
25365;SDS011;13315;48.274;-1.900;2022-11-20T10:49:55;8.40;;;2.47;;
25365;SDS011;13315;48.274;-1.900;2022-11-20T10:52:35;3.47;;;1.70;;
25365;SDS011;13315;48.274;-1.900;2022-11-20T10:55:24;4.55;;;1.80;;
25365;SDS011;13315;48.274;-1.900;2022-11-20T10:58:00;11.50;;;2.50;;
25365;SDS011;13315;48.274;-1.900;2022-11-20T11:00:32;9.27;;;3.73;;
25365;SDS011;13315;48.274;-1.900;2022-11-20T11:02:58;7.95;;;2.55;;
25365;SDS011;13315;48.274;-1.900;2022-11-20T11:08:05;6.50;;;2.35;;
25365;SDS011;13315;48.274;-1.900;2022-11-20T11:13:27;7.80;;;2.28;;
25365;SDS011;13315;48.274;-1.900;2022-11-20T11:15:54;9.85;;;2.78;;
25365;SDS011;13315;48.274;-1.900;2022-11-20T11:18:31;8.85;;;2.70;;
25365;SDS011;13315;48.274;-1.900;2022-11-20T11:21:01;6.83;;;2.43;;
25365;SDS011;13315;48.274;-1.900;2022-11-20T11:23:33;7.97;;;2.30;;
25365;SDS011;13315;48.274;-1.900;2022-11-20T11:26:03;8.35;;;2.95;;
25365;SDS011;13315;48.274;-1.900;2022-11-20T11:28:30;11.55;;;2.35;;
25365;SDS011;13315;48.274;-1.900;2022-11-20T11:30:57;8.63;;;2.78;;
25365;SDS011;13315;48.274;-1.900;2022-11-20T11:33:24;11.18;;;2.80;;
25365;SDS011;13315;48.274;-1.900;2022-11-20T11:35:55;8.35;;;2.40;;
25365;SDS011;13315;48.274;-1.900;2022-11-20T11:41:03;16.65;;;2.70;;
25365;SDS011;13315;48.274;-1.900;2022-11-20T11:43:32;9.32;;;2.25;;
25365;SDS011;13315;48.274;-1.900;2022-11-20T11:46:24;6.35;;;2.53;;
25365;SDS011;13315;48.274;-1.900;2022-11-20T11:48:58;6.45;;;2.00;;
25365;SDS011;13315;48.274;-1.900;2022-11-20T11:51:46;5.43;;;1.73;;
25365;SDS011;13315;48.274;-1.900;2022-11-20T11:54:23;5.35;;;1.80;;
25365;SDS011;13315;48.274;-1.900;2022-11-20T11:57:23;9.63;;;2.17;;
25365;SDS011;13315;48.274;-1.900;2022-11-20T12:00:08;7.30;;;2.10;;
25365;SDS011;13315;48.274;-1.900;2022-11-20T12:11:45;8.23;;;1.92;;
25365;SDS011;13315;48.274;-1.900;2022-11-20T12:14:04;10.63;;;2.08;;
25365;SDS011;13315;48.274;-1.900;2022-11-20T12:16:44;5.75;;;1.63;;
25365;SDS011;13315;48.274;-1.900;2022-11-20T12:19:12;9.68;;;1.80;;
25365;SDS011;13315;48.274;-1.900;2022-11-20T12:21:56;8.55;;;1.92;;
25365;SDS011;13315;48.274;-1.900;2022-11-20T12:27:38;4.50;;;1.45;;
25365;SDS011;13315;48.274;-1.900;2022-11-20T12:30:15;5.72;;;1.45;;
25365;SDS011;13315;48.274;-1.900;2022-11-20T12:53:03;3.80;;;2.08;;
25365;SDS011;13315;48.274;-1.900;2022-11-20T12:59:42;7.95;;;1.95;;
25365;SDS011;13315;48.274;-1.900;2022-11-20T13:07:09;2.40;;;1.20;;
25365;SDS011;13315;48.274;-1.900;2022-11-20T13:09:40;4.65;;;1.42;;
25365;SDS011;13315;48.274;-1.900;2022-11-20T13:17:59;7.43;;;1.88;;
25365;SDS011;13315;48.274;-1.900;2022-11-20T13:20:26;8.17;;;2.07;;
25365;SDS011;13315;48.274;-1.900;2022-11-20T13:22:55;8.32;;;1.65;;
25365;SDS011;13315;48.274;-1.900;2022-11-20T13:25:28;8.88;;;1.50;;
25365;SDS011;13315;48.274;-1.900;2022-11-20T13:27:59;7.22;;;1.90;;
25365;SDS011;13315;48.274;-1.900;2022-11-20T13:30:34;5.10;;;1.48;;
25365;SDS011;13315;48.274;-1.900;2022-11-20T13:36:03;6.55;;;1.45;;
25365;SDS011;13315;48.274;-1.900;2022-11-20T13:38:47;6.65;;;1.98;;
25365;SDS011;13315;48.274;-1.900;2022-11-20T13:41:31;7.40;;;1.98;;
25365;SDS011;13315;48.274;-1.900;2022-11-20T13:46:42;8.07;;;2.00;;
25365;SDS011;13315;48.274;-1.900;2022-11-20T14:00:08;7.93;;;1.58;;
25365;SDS011;13315;48.274;-1.900;2022-11-20T14:02:38;6.40;;;1.48;;
25365;SDS011;13315;48.274;-1.900;2022-11-20T14:05:04;8.00;;;1.67;;
25365;SDS011;13315;48.274;-1.900;2022-11-20T14:07:37;7.72;;;1.55;;
25365;SDS011;13315;48.274;-1.900;2022-11-20T14:10:19;4.40;;;1.20;;
25365;SDS011;13315;48.274;-1.900;2022-11-20T14:12:50;6.63;;;1.50;;
25365;SDS011;13315;48.274;-1.900;2022-11-20T14:17:58;4.97;;;1.65;;
25365;SDS011;13315;48.274;-1.900;2022-11-20T14:20:25;7.05;;;1.95;;
25365;SDS011;13315;48.274;-1.900;2022-11-20T14:22:54;2.70;;;1.35;;
25365;SDS011;13315;48.274;-1.900;2022-11-20T14:25:24;6.30;;;1.50;;
25365;SDS011;13315;48.274;-1.900;2022-11-20T14:27:58;7.97;;;1.38;;
25365;SDS011;13315;48.274;-1.900;2022-11-20T14:30:26;6.80;;;1.58;;
25365;SDS011;13315;48.274;-1.900;2022-11-20T14:32:55;6.05;;;1.90;;
25365;SDS011;13315;48.274;-1.900;2022-11-20T14:35:24;3.08;;;1.20;;
25365;SDS011;13315;48.274;-1.900;2022-11-20T14:37:54;6.70;;;1.48;;
25365;SDS011;13315;48.274;-1.900;2022-11-20T14:40:22;3.63;;;1.35;;
25365;SDS011;13315;48.274;-1.900;2022-11-20T14:42:53;4.35;;;1.38;;
25365;SDS011;13315;48.274;-1.900;2022-11-20T14:45:20;7.47;;;1.65;;
25365;SDS011;13315;48.274;-1.900;2022-11-20T14:47:47;17.95;;;1.92;;
25365;SDS011;13315;48.274;-1.900;2022-11-20T14:50:16;10.77;;;2.05;;
25365;SDS011;13315;48.274;-1.900;2022-11-20T14:52:50;8.88;;;1.92;;
25365;SDS011;13315;48.274;-1.900;2022-11-20T14:55:27;5.47;;;1.58;;
25365;SDS011;13315;48.274;-1.900;2022-11-20T14:58:19;5.38;;;2.08;;
25365;SDS011;13315;48.274;-1.900;2022-11-20T15:00:57;4.82;;;1.23;;
25365;SDS011;13315;48.274;-1.900;2022-11-20T15:03:35;4.97;;;1.60;;
25365;SDS011;13315;48.274;-1.900;2022-11-20T15:06:02;5.75;;;1.50;;
25365;SDS011;13315;48.274;-1.900;2022-11-20T15:08:29;4.20;;;1.40;;
25365;SDS011;13315;48.274;-1.900;2022-11-20T15:10:55;7.50;;;1.45;;
25365;SDS011;13315;48.274;-1.900;2022-11-20T15:13:25;2.25;;;1.20;;
25365;SDS011;13315;48.274;-1.900;2022-11-20T15:15:55;14.52;;;1.38;;
25365;SDS011;13315;48.274;-1.900;2022-11-20T15:18:23;5.32;;;1.73;;
25365;SDS011;13315;48.274;-1.900;2022-11-20T15:20:55;11.65;;;2.25;;
25365;SDS011;13315;48.274;-1.900;2022-11-20T15:23:22;6.20;;;1.70;;
25365;SDS011;13315;48.274;-1.900;2022-11-20T15:25:48;8.95;;;2.15;;
25365;SDS011;13315;48.274;-1.900;2022-11-20T15:28:21;7.18;;;1.55;;
25365;SDS011;13315;48.274;-1.900;2022-11-20T15:31:04;7.28;;;1.40;;
25365;SDS011;13315;48.274;-1.900;2022-11-20T15:33:31;4.60;;;1.25;;
25365;SDS011;13315;48.274;-1.900;2022-11-20T15:35:58;10.00;;;1.80;;
25365;SDS011;13315;48.274;-1.900;2022-11-20T15:38:24;5.38;;;1.85;;
25365;SDS011;13315;48.274;-1.900;2022-11-20T15:40:50;1.77;;;1.05;;
25365;SDS011;13315;48.274;-1.900;2022-11-20T15:43:15;6.63;;;1.70;;
25365;SDS011;13315;48.274;-1.900;2022-11-20T15:45:45;6.55;;;1.70;;
25365;SDS011;13315;48.274;-1.900;2022-11-20T15:53:39;4.32;;;1.33;;
25365;SDS011;13315;48.274;-1.900;2022-11-20T15:56:09;3.38;;;1.10;;
25365;SDS011;13315;48.274;-1.900;2022-11-20T15:58:37;5.10;;;1.35;;
25365;SDS011;13315;48.274;-1.900;2022-11-20T16:01:03;3.00;;;1.42;;
25365;SDS011;13315;48.274;-1.900;2022-11-20T16:03:29;9.02;;;1.92;;
25365;SDS011;13315;48.274;-1.900;2022-11-20T16:05:55;15.82;;;2.50;;
25365;SDS011;13315;48.274;-1.900;2022-11-20T16:08:21;9.38;;;2.47;;
25365;SDS011;13315;48.274;-1.900;2022-11-20T16:10:47;6.55;;;1.77;;
25365;SDS011;13315;48.274;-1.900;2022-11-20T16:13:14;6.40;;;1.52;;
25365;SDS011;13315;48.274;-1.900;2022-11-20T16:16:01;2.83;;;1.42;;
25365;SDS011;13315;48.274;-1.900;2022-11-20T16:18:34;6.95;;;1.73;;
25365;SDS011;13315;48.274;-1.900;2022-11-20T16:21:00;2.95;;;1.55;;
25365;SDS011;13315;48.274;-1.900;2022-11-20T16:23:26;8.18;;;1.48;;
25365;SDS011;13315;48.274;-1.900;2022-11-20T16:25:52;4.72;;;1.27;;
25365;SDS011;13315;48.274;-1.900;2022-11-20T16:28:17;4.45;;;1.38;;
25365;SDS011;13315;48.274;-1.900;2022-11-20T16:30:44;6.78;;;1.58;;
25365;SDS011;13315;48.274;-1.900;2022-11-20T16:33:11;3.13;;;1.50;;
25365;SDS011;13315;48.274;-1.900;2022-11-20T16:35:41;2.63;;;1.85;;
25365;SDS011;13315;48.274;-1.900;2022-11-20T16:38:07;5.50;;;1.30;;
25365;SDS011;13315;48.274;-1.900;2022-11-20T16:40:33;1.80;;;1.00;;
25365;SDS011;13315;48.274;-1.900;2022-11-20T16:43:06;2.72;;;1.00;;
25365;SDS011;13315;48.274;-1.900;2022-11-20T16:45:42;6.20;;;1.50;;
25365;SDS011;13315;48.274;-1.900;2022-11-20T16:48:11;3.47;;;1.10;;
25365;SDS011;13315;48.274;-1.900;2022-11-20T16:50:44;4.13;;;1.00;;